createdAt,value
2019-01-16T00:00:33.206Z,82.27
2019-01-16T00:03:22.826Z,82.41
2019-01-16T00:06:03.784Z,82.70
2019-01-16T00:09:05.507Z,82.85
2019-01-16T00:12:10.915Z,82.77
2019-01-16T00:15:06.356Z,82.48
2019-01-16T00:17:51.737Z,82.16
2019-01-16T00:20:37.391Z,82.27
2019-01-16T00:23:30.203Z,82.45
2019-01-16T00:26:15.991Z,82.56
2019-01-16T00:29:05.931Z,82.38
2019-01-16T00:31:45.785Z,82.63
2019-01-16T00:34:31.579Z,83.08
2019-01-16T00:37:24.411Z,83.05
2019-01-16T00:40:17.337Z,83.12
2019-01-16T00:43:06.243Z,82.34
2019-01-16T00:46:05.171Z,82.54
2019-01-16T00:49:00.849Z,82.95
2019-01-16T00:51:53.171Z,82.99
2019-01-16T00:54:42.698Z,82.88
2019-01-16T00:57:20.047Z,82.24
2019-01-16T01:00:12.998Z,82.17
2019-01-16T01:03:09.834Z,81.79
2019-01-16T01:05:59.702Z,81.81
2019-01-16T01:08:45.568Z,81.84
2019-01-16T01:11:47.729Z,82.10
2019-01-16T01:14:28.974Z,82.67
2019-01-16T01:17:09.363Z,82.94
2019-01-16T01:20:14.347Z,82.88
2019-01-16T01:22:59.836Z,82.82
2019-01-16T01:25:50.741Z,82.30
2019-01-16T01:28:34.181Z,82.14
2019-01-16T01:31:11.191Z,82.35
2019-01-16T01:33:56.891Z,82.22
2019-01-16T01:36:55.907Z,81.70
2019-01-16T01:39:42.855Z,81.92
2019-01-16T01:42:45.054Z,82.12
2019-01-16T01:45:24.566Z,82.22
2019-01-16T01:48:10.083Z,81.99
2019-01-16T01:50:53.494Z,81.67
2019-01-16T01:53:39.583Z,81.59
2019-01-16T01:56:29.582Z,81.28
2019-01-16T01:59:16.471Z,81.00
2019-01-16T02:01:59.074Z,80.52
2019-01-16T02:04:46.036Z,80.60
2019-01-16T02:07:31.690Z,81.11
2019-01-16T02:10:18.560Z,81.41
2019-01-16T02:13:05.407Z,81.10
2019-01-16T02:15:49.727Z,81.39
2019-01-16T02:18:47.097Z,81.88
2019-01-16T02:21:31.409Z,82.47
2019-01-16T02:24:16.992Z,82.95
2019-01-16T02:27:18.777Z,82.92
2019-01-16T02:30:20.715Z,83.40
2019-01-16T02:33:10.332Z,83.55
2019-01-16T02:35:48.376Z,83.14
2019-01-16T02:38:34.268Z,83.38
2019-01-16T02:41:20.496Z,82.85
2019-01-16T02:44:06.367Z,82.21
2019-01-16T02:46:52.172Z,82.12
2019-01-16T02:49:37.664Z,82.31
2019-01-16T02:52:33.991Z,82.42
2019-01-16T02:55:19.717Z,82.63
2019-01-16T02:58:22.017Z,82.59
2019-01-16T03:01:02.917Z,82.47
2019-01-16T03:03:48.376Z,82.36
2019-01-16T03:06:35.066Z,82.65
2019-01-16T03:09:15.732Z,82.73
2019-01-16T03:12:01.354Z,82.45
2019-01-16T03:14:44.060Z,82.49
2019-01-16T03:17:29.941Z,82.72
2019-01-16T03:20:26.076Z,82.80
2019-01-16T03:23:05.398Z,83.32
2019-01-16T03:25:46.966Z,83.36
2019-01-16T03:28:39.789Z,83.17
2019-01-16T03:31:26.654Z,83.18
2019-01-16T03:34:22.318Z,83.25
2019-01-16T03:37:11.902Z,83.36
2019-01-16T03:39:49.555Z,83.30
2019-01-16T03:42:40.533Z,82.96
2019-01-16T03:45:30.418Z,82.96
2019-01-16T03:48:17.248Z,82.87
2019-01-16T03:50:57.434Z,82.89
2019-01-16T03:53:38.896Z,83.44
2019-01-16T03:56:28.775Z,83.31
2019-01-16T03:59:21.774Z,83.57
2019-01-16T04:02:14.505Z,83.66
2019-01-16T04:05:07.545Z,84.08
2019-01-16T04:08:03.845Z,84.37
2019-01-16T04:10:50.719Z,84.63
2019-01-16T04:13:37.583Z,84.54
2019-01-16T04:16:18.662Z,85.01
2019-01-16T04:19:04.346Z,84.72
2019-01-16T04:21:45.701Z,84.44
2019-01-16T04:24:32.571Z,84.61
2019-01-16T04:27:22.457Z,84.87
2019-01-16T04:30:21.236Z,84.72
2019-01-16T04:33:17.173Z,84.40
2019-01-16T04:36:03.218Z,84.01
2019-01-16T04:38:52.930Z,83.54
2019-01-16T04:41:39.793Z,82.82
2019-01-16T04:44:35.743Z,83.03
2019-01-16T04:47:28.978Z,83.63
2019-01-16T04:50:14.539Z,84.21
2019-01-16T04:53:04.562Z,84.68
2019-01-16T04:55:51.404Z,85.01
2019-01-16T04:58:41.231Z,85.00
2019-01-16T05:01:19.886Z,85.20
2019-01-16T05:04:25.126Z,85.09
2019-01-16T05:07:14.705Z,84.50
2019-01-16T05:09:52.356Z,84.47
2019-01-16T05:12:57.347Z,84.21
2019-01-16T05:15:36.056Z,84.12
2019-01-16T05:18:22.893Z,84.27
2019-01-16T05:21:08.406Z,84.68
2019-01-16T05:23:54.071Z,84.40
2019-01-16T05:26:39.625Z,84.30
2019-01-16T05:29:26.499Z,84.14
2019-01-16T05:32:13.372Z,84.64
2019-01-16T05:35:06.072Z,84.59
2019-01-16T05:37:51.394Z,84.93
2019-01-16T05:40:37.057Z,84.78
2019-01-16T05:43:22.754Z,84.63
2019-01-16T05:46:15.714Z,84.26
2019-01-16T05:49:17.719Z,84.20
2019-01-16T05:52:05.063Z,84.08
2019-01-16T05:54:50.818Z,83.80
2019-01-16T05:57:37.660Z,83.57
2019-01-16T06:00:24.214Z,83.87
2019-01-16T06:03:13.959Z,84.51
2019-01-16T06:05:59.689Z,85.08
2019-01-16T06:08:48.524Z,84.87
2019-01-16T06:11:50.822Z,84.83
2019-01-16T06:14:40.248Z,85.04
2019-01-16T06:17:25.767Z,85.26
2019-01-16T06:20:22.067Z,85.51
2019-01-16T06:23:11.825Z,85.67
2019-01-16T06:26:07.955Z,85.60
2019-01-16T06:28:54.647Z,85.50
2019-01-16T06:31:47.513Z,85.00
2019-01-16T06:34:28.805Z,84.74
2019-01-16T06:37:06.911Z,84.53
2019-01-16T06:40:03.207Z,84.76
2019-01-16T06:43:02.098Z,84.74
2019-01-16T06:46:01.078Z,84.10
2019-01-16T06:48:50.793Z,84.23
2019-01-16T06:51:37.678Z,84.61
2019-01-16T06:54:24.592Z,84.92
2019-01-16T06:57:17.276Z,85.36
2019-01-16T07:00:13.371Z,85.49
2019-01-16T07:03:02.995Z,85.43
2019-01-16T07:05:48.331Z,85.41
2019-01-16T07:08:41.271Z,85.23
2019-01-16T07:11:40.303Z,84.92
2019-01-16T07:14:17.570Z,84.75
2019-01-16T07:17:03.370Z,84.63
2019-01-16T07:19:49.053Z,84.69
2019-01-16T07:22:51.023Z,84.90
2019-01-16T07:25:37.914Z,84.88
2019-01-16T07:28:27.805Z,85.00
2019-01-16T07:31:24.022Z,85.29
2019-01-16T07:34:10.921Z,85.40
2019-01-16T07:37:06.806Z,85.35
2019-01-16T07:40:03.046Z,85.33
2019-01-16T07:42:52.788Z,85.29
2019-01-16T07:45:49.558Z,85.55
2019-01-16T07:48:35.512Z,85.72
2019-01-16T07:51:21.270Z,85.98
2019-01-16T07:54:07.065Z,86.16
2019-01-16T07:56:53.529Z,86.14
2019-01-16T07:59:35.461Z,85.47
2019-01-16T08:02:20.916Z,84.55
2019-01-16T08:05:11.006Z,83.56
2019-01-16T08:07:47.249Z,82.86
2019-01-16T08:10:52.599Z,83.17
2019-01-16T08:13:48.633Z,82.97
2019-01-16T08:16:41.395Z,81.34
2019-01-16T08:19:40.609Z,79.11
2019-01-16T08:22:26.222Z,77.02
2019-01-16T08:25:00.675Z,74.85
2019-01-16T08:27:56.613Z,73.28
2019-01-16T08:30:52.433Z,71.51
2019-01-16T08:33:34.526Z,71.10
2019-01-16T08:36:21.385Z,70.56
2019-01-16T08:39:11.041Z,68.83
2019-01-16T08:41:56.674Z,68.23
2019-01-16T08:44:55.837Z,69.60
2019-01-16T08:47:42.682Z,71.46
2019-01-16T08:50:32.715Z,72.82
2019-01-16T08:53:16.186Z,73.44
2019-01-16T08:56:01.710Z,73.36
2019-01-16T08:58:57.967Z,68.16
2019-01-16T09:01:44.836Z,60.85
2019-01-16T09:04:30.689Z,54.30
2019-01-16T09:07:10.610Z,47.13
2019-01-16T09:10:01.732Z,44.49
2019-01-16T09:12:51.191Z,43.36
2019-01-16T09:15:36.687Z,42.68
2019-01-16T09:18:32.760Z,44.52
2019-01-16T09:21:28.717Z,46.59
2019-01-16T09:24:14.174Z,48.41
2019-01-16T09:26:57.450Z,50.81
2019-01-16T09:29:43.102Z,49.71
2019-01-16T09:32:36.031Z,44.57
2019-01-16T09:35:20.340Z,42.27
2019-01-16T09:38:22.671Z,37.25
2019-01-16T09:41:09.522Z,35.37
2019-01-16T09:44:08.525Z,34.67
2019-01-16T09:47:05.231Z,33.10
2019-01-16T09:49:58.286Z,34.58
2019-01-16T09:52:54.298Z,33.08
2019-01-16T09:55:53.410Z,33.72
2019-01-16T09:58:40.361Z,29.73
2019-01-16T10:01:25.947Z,28.89
2019-01-16T10:04:31.344Z,28.33
2019-01-16T10:07:33.328Z,30.07
2019-01-16T10:10:11.416Z,31.89
2019-01-16T10:13:16.395Z,30.53
2019-01-16T10:16:12.225Z,32.06
2019-01-16T10:19:01.699Z,31.28
2019-01-16T10:21:47.327Z,32.31
2019-01-16T10:24:34.271Z,31.23
2019-01-16T10:27:20.031Z,32.70
2019-01-16T10:30:09.963Z,32.44
2019-01-16T10:32:55.774Z,31.16
2019-01-16T10:35:41.366Z,32.28
2019-01-16T10:38:28.747Z,32.57
2019-01-16T10:41:30.902Z,34.07
2019-01-16T10:44:20.685Z,34.37
2019-01-16T10:47:06.323Z,34.54
2019-01-16T10:50:11.618Z,32.75
2019-01-16T10:52:52.577Z,32.71
2019-01-16T10:55:46.039Z,33.34
2019-01-16T10:58:32.162Z,33.66
2019-01-16T11:01:11.799Z,32.76
2019-01-16T11:03:57.609Z,36.67
2019-01-16T11:06:44.499Z,38.76
2019-01-16T11:09:43.650Z,40.21
2019-01-16T11:12:39.385Z,41.16
2019-01-16T11:15:45.026Z,42.24
2019-01-16T11:18:43.967Z,45.33
2019-01-16T11:21:29.618Z,47.70
2019-01-16T11:24:19.242Z,49.91
2019-01-16T11:27:05.057Z,50.88
2019-01-16T11:29:51.938Z,50.72
2019-01-16T11:32:38.786Z,50.80
2019-01-16T11:35:35.782Z,51.53
2019-01-16T11:38:25.416Z,51.90
2019-01-16T11:41:09.927Z,52.97
2019-01-16T11:43:57.082Z,53.25
2019-01-16T11:46:42.547Z,54.88
2019-01-16T11:49:27.798Z,56.50
2019-01-16T11:52:14.673Z,57.85
2019-01-16T11:55:07.346Z,58.68
2019-01-16T11:57:53.179Z,60.85
2019-01-16T12:00:46.214Z,61.99
2019-01-16T12:03:35.870Z,62.78
2019-01-16T12:06:22.978Z,62.12
2019-01-16T12:09:15.738Z,63.23
2019-01-16T12:12:01.783Z,62.84
2019-01-16T12:14:58.047Z,63.38
2019-01-16T12:17:57.044Z,62.82
2019-01-16T12:20:42.022Z,62.82
2019-01-16T12:23:15.810Z,61.94
2019-01-16T12:26:08.640Z,62.11
2019-01-16T12:28:52.115Z,61.94
2019-01-16T12:31:28.299Z,61.93
2019-01-16T12:34:15.185Z,61.18
2019-01-16T12:37:14.371Z,61.88
2019-01-16T12:39:54.575Z,61.75
2019-01-16T12:42:53.576Z,61.94
2019-01-16T12:45:39.031Z,61.70
2019-01-16T12:48:36.704Z,61.68
2019-01-16T12:51:16.734Z,62.21
2019-01-16T12:53:52.989Z,61.71
2019-01-16T12:56:42.898Z,62.30
2019-01-16T12:59:29.774Z,61.73
2019-01-16T13:02:15.619Z,62.61
2019-01-16T13:05:14.869Z,62.03
2019-01-16T13:08:04.639Z,62.00
2019-01-16T13:11:06.664Z,62.09
2019-01-16T13:14:02.412Z,62.05
2019-01-16T13:16:47.754Z,62.63
2019-01-16T13:19:43.806Z,62.64
2019-01-16T13:22:45.660Z,63.03
2019-01-16T13:25:37.902Z,63.18
2019-01-16T13:28:23.415Z,63.52
2019-01-16T13:31:02.303Z,63.15
2019-01-16T13:33:38.692Z,63.80
2019-01-16T13:36:29.352Z,63.38
2019-01-16T13:39:28.226Z,64.03
2019-01-16T13:42:23.854Z,64.58
2019-01-16T13:45:09.394Z,64.11
2019-01-16T13:47:47.309Z,64.37
2019-01-16T13:50:49.039Z,64.78
2019-01-16T13:53:35.966Z,63.91
2019-01-16T13:56:41.806Z,64.14
2019-01-16T13:59:31.635Z,64.54
2019-01-16T14:02:33.860Z,64.89
2019-01-16T14:05:18.659Z,65.33
2019-01-16T14:07:58.672Z,65.69
2019-01-16T14:10:45.797Z,65.84
2019-01-16T14:13:31.600Z,65.94
2019-01-16T14:16:17.077Z,65.63
2019-01-16T14:18:54.819Z,66.17
2019-01-16T14:21:33.929Z,66.56
2019-01-16T14:24:20.835Z,66.75
2019-01-16T14:27:19.972Z,66.56
2019-01-16T14:30:05.883Z,67.07
2019-01-16T14:32:51.648Z,67.25
2019-01-16T14:35:44.614Z,67.39
2019-01-16T14:38:49.831Z,67.53
2019-01-16T14:41:32.270Z,67.97
2019-01-16T14:44:22.096Z,67.84
2019-01-16T14:47:21.212Z,68.50
2019-01-16T14:50:08.075Z,68.91
2019-01-16T14:53:04.252Z,69.15
2019-01-16T14:55:53.918Z,69.01
2019-01-16T14:58:39.642Z,69.24
2019-01-16T15:01:32.570Z,68.52
2019-01-16T15:04:19.470Z,68.35
2019-01-16T15:07:04.922Z,68.47
2019-01-16T15:09:39.090Z,68.13
2019-01-16T15:12:20.261Z,68.09
2019-01-16T15:15:13.338Z,67.68
2019-01-16T15:18:09.442Z,66.89
2019-01-16T15:20:59.179Z,67.36
2019-01-16T15:23:49.098Z,67.04
2019-01-16T15:26:42.264Z,66.14
2019-01-16T15:29:31.973Z,65.61
2019-01-16T15:32:17.783Z,65.75
2019-01-16T15:34:57.086Z,66.08
2019-01-16T15:37:49.959Z,65.95
2019-01-16T15:40:26.881Z,64.97
2019-01-16T15:43:17.102Z,64.52
2019-01-16T15:46:06.927Z,64.04
2019-01-16T15:49:11.959Z,64.90
2019-01-16T15:51:58.850Z,65.58
2019-01-16T15:54:37.753Z,65.67
2019-01-16T15:57:24.036Z,65.79
2019-01-16T16:00:23.079Z,66.08
2019-01-16T16:03:22.196Z,65.93
2019-01-16T16:06:09.062Z,65.59
2019-01-16T16:09:14.342Z,65.83
2019-01-16T16:12:01.218Z,65.83
2019-01-16T16:14:51.273Z,66.24
2019-01-16T16:17:50.040Z,66.85
2019-01-16T16:20:54.277Z,67.19
2019-01-16T16:23:38.976Z,68.00
2019-01-16T16:26:31.707Z,68.19
2019-01-16T16:29:18.555Z,69.05
2019-01-16T16:32:04.182Z,69.60
2019-01-16T16:35:03.284Z,69.79
2019-01-16T16:37:54.458Z,70.33
2019-01-16T16:40:39.857Z,70.43
2019-01-16T16:43:25.661Z,70.27
2019-01-16T16:46:15.690Z,70.79
2019-01-16T16:49:02.824Z,70.84
2019-01-16T16:51:48.306Z,70.65
2019-01-16T16:54:35.102Z,71.08
2019-01-16T16:57:24.819Z,70.40
2019-01-16T17:00:10.282Z,69.81
2019-01-16T17:02:56.037Z,68.88
2019-01-16T17:05:49.086Z,68.61
2019-01-16T17:08:35.117Z,68.37
2019-01-16T17:11:25.026Z,68.02
2019-01-16T17:14:14.673Z,68.01
2019-01-16T17:17:00.097Z,67.91
2019-01-16T17:19:55.974Z,68.23
2019-01-16T17:22:42.446Z,68.41
2019-01-16T17:25:29.346Z,68.20
2019-01-16T17:28:22.279Z,68.68
2019-01-16T17:31:06.216Z,68.29
2019-01-16T17:34:08.190Z,67.86
2019-01-16T17:36:53.671Z,68.27
2019-01-16T17:39:39.311Z,67.99
2019-01-16T17:42:24.851Z,67.97
2019-01-16T17:45:10.586Z,66.97
2019-01-16T17:47:56.546Z,66.03
2019-01-16T17:51:01.933Z,66.23
2019-01-16T17:53:48.891Z,65.98
2019-01-16T17:56:35.766Z,66.22
2019-01-16T17:59:28.673Z,65.51
2019-01-16T18:02:14.339Z,65.72
2019-01-16T18:05:06.893Z,65.15
2019-01-16T18:07:43.667Z,65.18
2019-01-16T18:10:30.638Z,64.95
2019-01-16T18:13:17.537Z,64.82
2019-01-16T18:16:07.276Z,64.17
2019-01-16T18:18:54.131Z,63.39
2019-01-16T18:21:50.262Z,63.09
2019-01-16T18:24:45.087Z,63.14
2019-01-16T18:27:42.018Z,62.76
2019-01-16T18:30:38.987Z,62.30
2019-01-16T18:33:25.878Z,62.44
2019-01-16T18:36:21.645Z,62.75
2019-01-16T18:39:07.278Z,62.35
2019-01-16T18:41:51.126Z,62.38
2019-01-16T18:44:40.754Z,62.77
2019-01-16T18:47:26.505Z,63.07
2019-01-16T18:50:16.542Z,62.94
2019-01-16T18:53:09.435Z,62.94
2019-01-16T18:55:55.112Z,62.44
2019-01-16T18:58:32.511Z,62.55
2019-01-16T19:01:14.951Z,62.15
2019-01-16T19:03:48.256Z,62.05
2019-01-16T19:06:34.437Z,60.55
2019-01-16T19:09:33.670Z,60.94
2019-01-16T19:12:26.457Z,60.78
2019-01-16T19:15:28.404Z,61.44
2019-01-16T19:18:17.992Z,61.72
2019-01-16T19:21:07.914Z,61.22
2019-01-16T19:23:56.590Z,62.04
2019-01-16T19:26:42.099Z,61.86
2019-01-16T19:29:38.325Z,61.59
2019-01-16T19:32:23.749Z,62.06
2019-01-16T19:35:26.151Z,62.34
2019-01-16T19:38:13.061Z,62.48
2019-01-16T19:41:00.036Z,62.42
2019-01-16T19:43:53.118Z,62.55
2019-01-16T19:46:38.691Z,62.52
2019-01-16T19:49:24.506Z,62.84
2019-01-16T19:52:18.374Z,62.92
2019-01-16T19:55:04.035Z,63.08
2019-01-16T19:57:48.275Z,63.61
2019-01-16T20:00:48.353Z,64.28
2019-01-16T20:03:53.385Z,63.79
2019-01-16T20:06:52.401Z,64.00
2019-01-16T20:09:38.110Z,63.94
2019-01-16T20:12:23.557Z,63.88
2019-01-16T20:15:09.397Z,63.97
2019-01-16T20:17:56.378Z,64.03
2019-01-16T20:20:58.596Z,63.64
2019-01-16T20:24:00.378Z,63.81
2019-01-16T20:26:45.807Z,64.08
2019-01-16T20:29:31.362Z,65.06
2019-01-16T20:32:18.225Z,65.21
2019-01-16T20:35:00.832Z,65.76
2019-01-16T20:37:46.591Z,65.64
2019-01-16T20:40:36.240Z,65.32
2019-01-16T20:43:29.175Z,65.26
2019-01-16T20:46:11.487Z,64.62
2019-01-16T20:49:01.419Z,64.29
2019-01-16T20:51:52.683Z,64.41
2019-01-16T20:54:38.045Z,64.56
2019-01-16T20:57:30.957Z,65.04
2019-01-16T21:00:16.727Z,65.36
2019-01-16T21:03:18.835Z,65.61
2019-01-16T21:06:00.935Z,65.73
2019-01-16T21:08:40.474Z,65.29
2019-01-16T21:11:45.762Z,65.12
2019-01-16T21:14:41.412Z,65.20
2019-01-16T21:17:46.304Z,64.91
2019-01-16T21:20:32.559Z,65.10
2019-01-16T21:23:23.684Z,64.65
2019-01-16T21:26:06.930Z,64.38
2019-01-16T21:29:06.242Z,64.58
2019-01-16T21:31:43.162Z,64.85
2019-01-16T21:34:29.971Z,64.81
2019-01-16T21:37:34.987Z,65.20
2019-01-16T21:40:24.593Z,65.50
2019-01-16T21:43:03.306Z,65.84
2019-01-16T21:45:56.214Z,65.78
2019-01-16T21:48:39.819Z,65.94
2019-01-16T21:51:26.719Z,66.13
2019-01-16T21:54:04.755Z,66.25
2019-01-16T21:56:43.707Z,66.52
2019-01-16T21:59:31.902Z,67.36
2019-01-16T22:02:23.271Z,67.48
2019-01-16T22:05:08.879Z,67.52
2019-01-16T22:07:55.101Z,67.82
2019-01-16T22:10:44.989Z,67.78
2019-01-16T22:13:29.931Z,67.85
2019-01-16T22:16:05.406Z,67.83
2019-01-16T22:19:10.378Z,67.78
2019-01-16T22:21:45.583Z,67.55
2019-01-16T22:24:20.595Z,67.48
2019-01-16T22:27:10.414Z,67.33
2019-01-16T22:29:56.535Z,67.50
2019-01-16T22:32:35.271Z,67.44
2019-01-16T22:35:31.375Z,67.25
2019-01-16T22:38:17.309Z,67.06
2019-01-16T22:41:02.321Z,67.11
2019-01-16T22:43:46.885Z,67.14
2019-01-16T22:46:36.471Z,66.76
2019-01-16T22:49:29.330Z,66.62
2019-01-16T22:52:28.250Z,66.34
2019-01-16T22:55:33.358Z,66.44
2019-01-16T22:58:20.291Z,66.57
2019-01-16T23:01:16.771Z,66.46
2019-01-16T23:04:15.811Z,66.86
2019-01-16T23:06:59.683Z,67.03
2019-01-16T23:09:58.923Z,66.97
2019-01-16T23:12:57.751Z,66.84
2019-01-16T23:15:44.455Z,67.31
2019-01-16T23:18:29.957Z,67.29
2019-01-16T23:21:26.062Z,67.42
2019-01-16T23:24:16.139Z,67.53
2019-01-16T23:26:55.238Z,67.56
2019-01-16T23:29:42.137Z,67.62
2019-01-16T23:32:25.456Z,67.53
2019-01-16T23:35:12.350Z,67.35
2019-01-16T23:38:04.506Z,67.68
2019-01-16T23:40:50.269Z,68.04
2019-01-16T23:43:40.126Z,68.15
2019-01-16T23:46:36.010Z,68.24
2019-01-16T23:49:10.534Z,68.22
2019-01-16T23:51:43.827Z,68.34
2019-01-16T23:54:36.530Z,68.66
2019-01-16T23:57:26.486Z,68.87
